Terminal Aerodrome Forecast
Issued by NWS

Current Version | Previous Version | Text Only | Print | Product List | Glossary On
Versions: 1 2 3 4 5 6 7 8 9 10 11 12 13 14 15 16 17 18 19 20 21 22 23 24 25 26 27 28 29 30 31 32 33 34 35 36 37 38 39 40 41 42 43 44 45 46 47 48 49 50
000
FTUS44 KLIX 190200 AAA
TAFASD
TAF AMD
KASD 190239Z 1903/1924 VRB04KT P6SM VCSH SCT025 BKN050
      TEMPO 1903/1906 3SM -SHRA BKN025
     FM190800 00000KT 4SM BR SCT030 BKN110
      TEMPO 1909/1912 2SM BR BKN005
     FM191300 09004KT P6SM FEW025 SCT070
     FM191600 10008KT P6SM SCT035 SCT100=

USA.gov is the U.S. government's official web portal to all federal, state and local government web resources and services.